sensor_id;sensor_type;location;lat;lon;timestamp;pressure;altitude;pressure_sealevel;temperature;humidity
46534;BME280;32260;52.008;4.752;2023-04-26T00:00:54;102058.47;;;7.68;55.54
46534;BME280;32260;52.008;4.752;2023-04-26T00:03:20;102068.16;;;7.68;55.18
46534;BME280;32260;52.008;4.752;2023-04-26T00:05:46;102065.47;;;7.63;55.04
46534;BME280;32260;52.008;4.752;2023-04-26T00:08:13;102063.66;;;7.59;53.83
46534;BME280;32260;52.008;4.752;2023-04-26T00:10:39;102067.16;;;7.56;55.53
46534;BME280;32260;52.008;4.752;2023-04-26T00:13:05;102069.75;;;7.53;54.88
46534;BME280;32260;52.008;4.752;2023-04-26T00:15:32;102067.03;;;7.49;54.95
46534;BME280;32260;52.008;4.752;2023-04-26T00:17:58;102066.09;;;7.45;55.61
46534;BME280;32260;52.008;4.752;2023-04-26T00:20:24;102071.34;;;7.40;56.11
46534;BME280;32260;52.008;4.752;2023-04-26T00:22:50;102060.72;;;7.34;55.77
46534;BME280;32260;52.008;4.752;2023-04-26T00:25:16;102061.53;;;7.30;55.51
46534;BME280;32260;52.008;4.752;2023-04-26T00:27:42;102063.25;;;7.26;54.94
46534;BME280;32260;52.008;4.752;2023-04-26T00:30:09;102059.69;;;7.23;54.69
46534;BME280;32260;52.008;4.752;2023-04-26T00:32:36;102064.00;;;7.18;55.72
46534;BME280;32260;52.008;4.752;2023-04-26T00:35:03;102061.28;;;7.11;55.12
46534;BME280;32260;52.008;4.752;2023-04-26T00:37:30;102058.59;;;7.07;55.00
46534;BME280;32260;52.008;4.752;2023-04-26T00:39:56;102062.94;;;7.05;55.11
46534;BME280;32260;52.008;4.752;2023-04-26T00:42:22;102062.94;;;7.03;54.66
46534;BME280;32260;52.008;4.752;2023-04-26T00:44:48;102059.38;;;7.01;55.21
46534;BME280;32260;52.008;4.752;2023-04-26T00:47:15;102067.28;;;7.00;56.23
46534;BME280;32260;52.008;4.752;2023-04-26T00:49:41;102062.00;;;7.00;55.70
46534;BME280;32260;52.008;4.752;2023-04-26T00:52:07;102060.22;;;7.00;55.42
46534;BME280;32260;52.008;4.752;2023-04-26T00:54:34;102054.94;;;6.97;56.53
46534;BME280;32260;52.008;4.752;2023-04-26T00:57:01;102062.84;;;6.97;56.30
46534;BME280;32260;52.008;4.752;2023-04-26T00:59:27;102058.44;;;6.96;55.76
46534;BME280;32260;52.008;4.752;2023-04-26T01:01:53;102055.78;;;6.94;57.39
46534;BME280;32260;52.008;4.752;2023-04-26T01:04:20;102051.34;;;6.90;57.08
46534;BME280;32260;52.008;4.752;2023-04-26T01:06:46;102053.06;;;6.90;57.13
46534;BME280;32260;52.008;4.752;2023-04-26T01:09:13;102066.25;;;6.90;57.73
46534;BME280;32260;52.008;4.752;2023-04-26T01:11:40;102056.47;;;6.83;57.31
46534;BME280;32260;52.008;4.752;2023-04-26T01:14:07;102055.59;;;6.80;57.25
46534;BME280;32260;52.008;4.752;2023-04-26T01:16:34;102059.91;;;6.77;57.28
46534;BME280;32260;52.008;4.752;2023-04-26T01:19:09;102063.41;;;6.77;57.99
46534;BME280;32260;52.008;4.752;2023-04-26T01:21:38;102061.59;;;6.72;57.04
46534;BME280;32260;52.008;4.752;2023-04-26T01:24:05;102060.69;;;6.71;57.30
46534;BME280;32260;52.008;4.752;2023-04-26T01:26:31;102067.72;;;6.69;57.74
46534;BME280;32260;52.008;4.752;2023-04-26T01:28:58;102067.66;;;6.68;57.77
46534;BME280;32260;52.008;4.752;2023-04-26T01:31:24;102066.75;;;6.66;57.39
46534;BME280;32260;52.008;4.752;2023-04-26T01:33:50;102064.09;;;6.64;57.73
46534;BME280;32260;52.008;4.752;2023-04-26T01:36:16;102066.69;;;6.62;57.84
46534;BME280;32260;52.008;4.752;2023-04-26T01:38:42;102066.66;;;6.59;57.56
46534;BME280;32260;52.008;4.752;2023-04-26T01:41:08;102066.63;;;6.58;57.24
46534;BME280;32260;52.008;4.752;2023-04-26T01:43:35;102067.44;;;6.54;57.57
46534;BME280;32260;52.008;4.752;2023-04-26T01:46:01;102062.13;;;6.51;57.67
46534;BME280;32260;52.008;4.752;2023-04-26T01:48:27;102060.28;;;6.46;57.36
46534;BME280;32260;52.008;4.752;2023-04-26T01:50:53;102060.25;;;6.43;57.20
46534;BME280;32260;52.008;4.752;2023-04-26T01:53:19;102063.75;;;6.42;57.69
46534;BME280;32260;52.008;4.752;2023-04-26T01:55:46;102063.72;;;6.39;57.43
46534;BME280;32260;52.008;4.752;2023-04-26T01:58:12;102055.81;;;6.39;57.81
46534;BME280;32260;52.008;4.752;2023-04-26T02:00:38;102062.78;;;6.37;57.86
46534;BME280;32260;52.008;4.752;2023-04-26T02:03:04;102063.63;;;6.36;57.60
46534;BME280;32260;52.008;4.752;2023-04-26T02:05:30;102065.41;;;6.36;57.45
46534;BME280;32260;52.008;4.752;2023-04-26T02:07:56;102065.34;;;6.34;57.94
46534;BME280;32260;52.008;4.752;2023-04-26T02:10:22;102060.09;;;6.34;58.73
46534;BME280;32260;52.008;4.752;2023-04-26T02:12:50;102054.81;;;6.34;58.75
46534;BME280;32260;52.008;4.752;2023-04-26T02:15:16;102067.13;;;6.35;58.79
46534;BME280;32260;52.008;4.752;2023-04-26T02:17:42;102061.88;;;6.35;58.44
46534;BME280;32260;52.008;4.752;2023-04-26T02:20:08;102059.25;;;6.37;58.73
46534;BME280;32260;52.008;4.752;2023-04-26T02:22:35;102056.63;;;6.37;58.97
46534;BME280;32260;52.008;4.752;2023-04-26T02:25:01;102060.16;;;6.37;59.10
46534;BME280;32260;52.008;4.752;2023-04-26T02:27:28;102060.16;;;6.39;58.87
46534;BME280;32260;52.008;4.752;2023-04-26T02:29:54;102064.59;;;6.41;59.36
46534;BME280;32260;52.008;4.752;2023-04-26T02:32:20;102063.84;;;6.47;58.28
46534;BME280;32260;52.008;4.752;2023-04-26T02:34:46;102066.56;;;6.53;58.68
46534;BME280;32260;52.008;4.752;2023-04-26T02:37:12;102060.50;;;6.59;58.88
46534;BME280;32260;52.008;4.752;2023-04-26T02:39:38;102062.38;;;6.66;58.80
46534;BME280;32260;52.008;4.752;2023-04-26T02:42:08;102053.75;;;6.76;59.47
46534;BME280;32260;52.008;4.752;2023-04-26T02:44:35;102052.06;;;6.82;58.71
46534;BME280;32260;52.008;4.752;2023-04-26T02:47:02;102052.16;;;6.88;59.16
46534;BME280;32260;52.008;4.752;2023-04-26T02:49:29;102046.09;;;6.92;59.18
46534;BME280;32260;52.008;4.752;2023-04-26T02:51:55;102043.50;;;6.96;59.18
46534;BME280;32260;52.008;4.752;2023-04-26T02:54:21;102043.53;;;6.98;59.37
46534;BME280;32260;52.008;4.752;2023-04-26T02:56:47;102044.44;;;7.00;58.75
46534;BME280;32260;52.008;4.752;2023-04-26T02:59:14;102048.84;;;7.01;59.19
46534;BME280;32260;52.008;4.752;2023-04-26T03:01:40;102049.75;;;7.02;58.24
46534;BME280;32260;52.008;4.752;2023-04-26T03:04:06;102039.19;;;7.02;58.62
46534;BME280;32260;52.008;4.752;2023-04-26T03:06:32;102036.53;;;7.00;59.19
46534;BME280;32260;52.008;4.752;2023-04-26T03:08:59;102035.66;;;7.00;59.49
46534;BME280;32260;52.008;4.752;2023-04-26T03:11:25;102040.03;;;6.99;59.24
46534;BME280;32260;52.008;4.752;2023-04-26T03:13:51;102046.19;;;7.00;59.22
46534;BME280;32260;52.008;4.752;2023-04-26T03:16:19;102045.34;;;7.01;59.21
46534;BME280;32260;52.008;4.752;2023-04-26T03:18:46;102053.16;;;6.96;59.24
46534;BME280;32260;52.008;4.752;2023-04-26T03:21:12;102040.84;;;6.93;59.07
46534;BME280;32260;52.008;4.752;2023-04-26T03:23:38;102037.28;;;6.91;58.86
46534;BME280;32260;52.008;4.752;2023-04-26T03:26:04;102042.53;;;6.90;58.43
46534;BME280;32260;52.008;4.752;2023-04-26T03:28:30;102046.88;;;6.88;59.24
46534;BME280;32260;52.008;4.752;2023-04-26T03:30:56;102043.34;;;6.86;59.02
46534;BME280;32260;52.008;4.752;2023-04-26T03:33:22;102037.09;;;6.79;59.37
46534;BME280;32260;52.008;4.752;2023-04-26T03:35:49;102040.63;;;6.79;59.45
46534;BME280;32260;52.008;4.752;2023-04-26T03:38:16;102033.56;;;6.77;59.31
46534;BME280;32260;52.008;4.752;2023-04-26T03:40:42;102032.66;;;6.75;59.09
46534;BME280;32260;52.008;4.752;2023-04-26T03:43:08;102033.50;;;6.74;59.13
46534;BME280;32260;52.008;4.752;2023-04-26T03:45:34;102037.91;;;6.72;59.43
46534;BME280;32260;52.008;4.752;2023-04-26T03:48:01;102035.19;;;6.69;59.19
46534;BME280;32260;52.008;4.752;2023-04-26T03:50:27;102036.06;;;6.68;59.18
46534;BME280;32260;52.008;4.752;2023-04-26T03:52:53;102025.50;;;6.66;59.10
46534;BME280;32260;52.008;4.752;2023-04-26T03:55:19;102025.47;;;6.64;59.13
46534;BME280;32260;52.008;4.752;2023-04-26T03:57:45;102022.84;;;6.63;59.50
46534;BME280;32260;52.008;4.752;2023-04-26T04:00:12;102015.78;;;6.62;59.29
46534;BME280;32260;52.008;4.752;2023-04-26T04:02:39;102012.25;;;6.60;59.54
46534;BME280;32260;52.008;4.752;2023-04-26T04:05:05;102021.91;;;6.59;59.36
46534;BME280;32260;52.008;4.752;2023-04-26T04:07:33;102022.75;;;6.58;59.61
46534;BME280;32260;52.008;4.752;2023-04-26T04:09:59;102023.59;;;6.56;58.79
46534;BME280;32260;52.008;4.752;2023-04-26T04:12:26;102027.09;;;6.55;59.25
46534;BME280;32260;52.008;4.752;2023-04-26T04:14:52;102022.69;;;6.54;59.44
46534;BME280;32260;52.008;4.752;2023-04-26T04:17:18;102022.66;;;6.52;59.13
46534;BME280;32260;52.008;4.752;2023-04-26T04:19:45;102023.47;;;6.48;59.04
46534;BME280;32260;52.008;4.752;2023-04-26T04:22:11;102033.09;;;6.47;59.27
46534;BME280;32260;52.008;4.752;2023-04-26T04:24:37;102032.25;;;6.48;59.52
46534;BME280;32260;52.008;4.752;2023-04-26T04:27:03;102036.66;;;6.48;59.71
46534;BME280;32260;52.008;4.752;2023-04-26T04:29:30;102036.66;;;6.48;59.36
46534;BME280;32260;52.008;4.752;2023-04-26T04:31:57;102044.53;;;6.48;59.67
46534;BME280;32260;52.008;4.752;2023-04-26T04:34:23;102047.19;;;6.50;59.47
46534;BME280;32260;52.008;4.752;2023-04-26T04:36:49;102043.72;;;6.52;59.54
46534;BME280;32260;52.008;4.752;2023-04-26T04:39:15;102046.44;;;6.57;59.59
46534;BME280;32260;52.008;4.752;2023-04-26T04:41:42;102038.59;;;6.61;59.78
46534;BME280;32260;52.008;4.752;2023-04-26T04:44:17;102046.66;;;6.72;59.98
46534;BME280;32260;52.008;4.752;2023-04-26T04:46:43;102039.78;;;6.82;59.71
46534;BME280;32260;52.008;4.752;2023-04-26T04:49:11;102046.97;;;6.94;60.39
46534;BME280;32260;52.008;4.752;2023-04-26T04:51:37;102045.34;;;7.02;60.41
46534;BME280;32260;52.008;4.752;2023-04-26T04:54:12;102029.72;;;7.18;59.66
46534;BME280;32260;52.008;4.752;2023-04-26T04:56:39;102041.19;;;7.18;60.01
46534;BME280;32260;52.008;4.752;2023-04-26T04:59:05;102039.50;;;7.25;58.92
46534;BME280;32260;52.008;4.752;2023-04-26T05:01:31;102036.91;;;7.28;59.16
46534;BME280;32260;52.008;4.752;2023-04-26T05:03:58;102032.53;;;7.30;59.15
46534;BME280;32260;52.008;4.752;2023-04-26T05:06:25;102038.72;;;7.32;59.19
46534;BME280;32260;52.008;4.752;2023-04-26T05:08:52;102038.72;;;7.34;59.26
46534;BME280;32260;52.008;4.752;2023-04-26T05:11:19;102038.78;;;7.35;59.13
46534;BME280;32260;52.008;4.752;2023-04-26T05:13:46;102034.34;;;7.34;58.71
46534;BME280;32260;52.008;4.752;2023-04-26T05:16:13;102034.34;;;7.34;58.75
46534;BME280;32260;52.008;4.752;2023-04-26T05:18:39;102041.34;;;7.34;59.14
46534;BME280;32260;52.008;4.752;2023-04-26T05:21:05;102040.50;;;7.35;59.31
46534;BME280;32260;52.008;4.752;2023-04-26T05:23:31;102038.78;;;7.35;59.43
46534;BME280;32260;52.008;4.752;2023-04-26T05:26:02;102042.28;;;7.37;59.58
46534;BME280;32260;52.008;4.752;2023-04-26T05:28:29;102039.66;;;7.39;59.80
46534;BME280;32260;52.008;4.752;2023-04-26T05:30:56;102045.00;;;7.43;59.45
46534;BME280;32260;52.008;4.752;2023-04-26T05:33:22;102043.31;;;7.49;59.45
46534;BME280;32260;52.008;4.752;2023-04-26T05:35:48;102049.50;;;7.54;59.95
46534;BME280;32260;52.008;4.752;2023-04-26T05:38:14;102046.06;;;7.58;58.91
46534;BME280;32260;52.008;4.752;2023-04-26T05:40:40;102042.59;;;7.62;59.40
46534;BME280;32260;52.008;4.752;2023-04-26T05:43:06;102053.22;;;7.68;59.25
46534;BME280;32260;52.008;4.752;2023-04-26T05:45:33;102055.00;;;7.72;58.50
46534;BME280;32260;52.008;4.752;2023-04-26T05:47:59;102057.75;;;7.80;59.34
46534;BME280;32260;52.008;4.752;2023-04-26T05:50:25;102061.38;;;7.91;59.42
46534;BME280;32260;52.008;4.752;2023-04-26T05:52:51;102056.19;;;8.02;59.45
46534;BME280;32260;52.008;4.752;2023-04-26T05:55:19;102060.72;;;8.14;59.32
46534;BME280;32260;52.008;4.752;2023-04-26T05:57:46;102052.88;;;8.23;58.86
46534;BME280;32260;52.008;4.752;2023-04-26T06:00:13;102053.84;;;8.33;59.12
46534;BME280;32260;52.008;4.752;2023-04-26T06:02:40;102053.97;;;8.46;58.97
46534;BME280;32260;52.008;4.752;2023-04-26T06:05:06;102058.50;;;8.59;59.05
46534;BME280;32260;52.008;4.752;2023-04-26T06:07:33;102057.69;;;8.69;58.82
46534;BME280;32260;52.008;4.752;2023-04-26T06:10:01;102067.44;;;8.80;58.94
46534;BME280;32260;52.008;4.752;2023-04-26T06:12:27;102063.13;;;8.88;59.03
46534;BME280;32260;52.008;4.752;2023-04-26T06:14:53;102070.22;;;8.98;58.31
46534;BME280;32260;52.008;4.752;2023-04-26T06:17:19;102060.59;;;9.05;58.69
46534;BME280;32260;52.008;4.752;2023-04-26T06:19:46;102070.34;;;9.17;58.70
46534;BME280;32260;52.008;4.752;2023-04-26T06:22:12;102074.78;;;9.22;58.18
46534;BME280;32260;52.008;4.752;2023-04-26T06:24:38;102074.81;;;9.27;58.43
46534;BME280;32260;52.008;4.752;2023-04-26T06:27:04;102079.25;;;9.34;58.00
46534;BME280;32260;52.008;4.752;2023-04-26T06:29:32;102078.41;;;9.40;58.28
46534;BME280;32260;52.008;4.752;2023-04-26T06:31:58;102079.28;;;9.41;57.81
46534;BME280;32260;52.008;4.752;2023-04-26T06:34:24;102082.81;;;9.39;57.79
46534;BME280;32260;52.008;4.752;2023-04-26T06:36:50;102079.31;;;9.44;57.68
46534;BME280;32260;52.008;4.752;2023-04-26T06:39:16;102089.00;;;9.48;58.02
46534;BME280;32260;52.008;4.752;2023-04-26T06:41:43;102088.16;;;9.55;57.95
46534;BME280;32260;52.008;4.752;2023-04-26T06:44:09;102082.88;;;9.58;57.56
46534;BME280;32260;52.008;4.752;2023-04-26T06:46:35;102079.38;;;9.65;58.03
46534;BME280;32260;52.008;4.752;2023-04-26T06:49:02;102083.84;;;9.77;57.76
46534;BME280;32260;52.008;4.752;2023-04-26T06:51:28;102073.28;;;9.86;57.85
46534;BME280;32260;52.008;4.752;2023-04-26T06:53:56;102084.78;;;9.96;57.63
46534;BME280;32260;52.008;4.752;2023-04-26T06:56:23;102073.31;;;10.07;57.50
46534;BME280;32260;52.008;4.752;2023-04-26T06:59:06;102075.13;;;10.26;57.49
46534;BME280;32260;52.008;4.752;2023-04-26T07:01:33;102074.25;;;10.33;57.19
46534;BME280;32260;52.008;4.752;2023-04-26T07:04:01;102074.28;;;10.46;56.75
46534;BME280;32260;52.008;4.752;2023-04-26T07:06:29;102083.13;;;10.57;56.98
46534;BME280;32260;52.008;4.752;2023-04-26T07:08:58;102075.16;;;10.66;56.19
46534;BME280;32260;52.008;4.752;2023-04-26T07:11:24;102079.56;;;10.67;56.13
46534;BME280;32260;52.008;4.752;2023-04-26T07:13:53;102074.28;;;10.71;56.00
46534;BME280;32260;52.008;4.752;2023-04-26T07:16:22;102077.81;;;10.66;55.00
46534;BME280;32260;52.008;4.752;2023-04-26T07:18:49;102078.69;;;10.67;55.04
46534;BME280;32260;52.008;4.752;2023-04-26T07:21:15;102065.44;;;10.68;54.83
46534;BME280;32260;52.008;4.752;2023-04-26T07:23:41;102069.84;;;10.79;55.60
46534;BME280;32260;52.008;4.752;2023-04-26T07:26:10;102069.84;;;10.90;54.77
46534;BME280;32260;52.008;4.752;2023-04-26T07:28:36;102075.97;;;11.03;55.00
46534;BME280;32260;52.008;4.752;2023-04-26T07:31:02;102076.84;;;11.14;54.46
46534;BME280;32260;52.008;4.752;2023-04-26T07:33:28;102074.19;;;11.22;55.04
46534;BME280;32260;52.008;4.752;2023-04-26T07:35:56;102079.47;;;11.28;53.04
46534;BME280;32260;52.008;4.752;2023-04-26T07:38:22;102075.91;;;11.33;52.89
46534;BME280;32260;52.008;4.752;2023-04-26T07:40:49;102079.41;;;11.39;53.46
46534;BME280;32260;52.008;4.752;2023-04-26T07:43:16;102074.09;;;11.45;52.46
46534;BME280;32260;52.008;4.752;2023-04-26T07:45:42;102079.38;;;11.54;52.51
46534;BME280;32260;52.008;4.752;2023-04-26T07:48:09;102086.44;;;11.61;53.53
46534;BME280;32260;52.008;4.752;2023-04-26T07:50:35;102076.69;;;11.59;50.95
46534;BME280;32260;52.008;4.752;2023-04-26T07:53:01;102083.78;;;11.57;52.34
46534;BME280;32260;52.008;4.752;2023-04-26T07:55:27;102086.47;;;11.49;51.67
46534;BME280;32260;52.008;4.752;2023-04-26T07:57:53;102097.16;;;11.37;51.73
46534;BME280;32260;52.008;4.752;2023-04-26T08:00:19;102100.66;;;11.32;50.93
46534;BME280;32260;52.008;4.752;2023-04-26T08:02:47;102093.63;;;11.28;51.21
46534;BME280;32260;52.008;4.752;2023-04-26T08:05:14;102091.88;;;11.24;51.84
46534;BME280;32260;52.008;4.752;2023-04-26T08:07:41;102099.81;;;11.21;51.58
46534;BME280;32260;52.008;4.752;2023-04-26T08:10:07;102101.56;;;11.24;51.97
46534;BME280;32260;52.008;4.752;2023-04-26T08:12:35;102094.50;;;11.26;51.01
46534;BME280;32260;52.008;4.752;2023-04-26T08:15:02;102100.69;;;11.31;51.15
46534;BME280;32260;52.008;4.752;2023-04-26T08:17:30;102100.69;;;11.36;49.52
46534;BME280;32260;52.008;4.752;2023-04-26T08:19:57;102109.50;;;11.41;50.82
46534;BME280;32260;52.008;4.752;2023-04-26T08:22:23;102097.97;;;11.45;50.06
46534;BME280;32260;52.008;4.752;2023-04-26T08:24:51;102091.81;;;11.43;48.95
46534;BME280;32260;52.008;4.752;2023-04-26T08:27:17;102096.22;;;11.44;48.90
46534;BME280;32260;52.008;4.752;2023-04-26T08:29:44;102096.22;;;11.44;49.28
46534;BME280;32260;52.008;4.752;2023-04-26T08:32:10;102095.31;;;11.48;49.10
46534;BME280;32260;52.008;4.752;2023-04-26T08:34:37;102095.31;;;11.51;48.29
46534;BME280;32260;52.008;4.752;2023-04-26T08:37:03;102095.28;;;11.57;45.50
46534;BME280;32260;52.008;4.752;2023-04-26T08:39:30;102095.22;;;11.73;48.63
46534;BME280;32260;52.008;4.752;2023-04-26T08:41:59;102096.94;;;11.80;48.10
46534;BME280;32260;52.008;4.752;2023-04-26T08:44:29;102091.63;;;11.88;47.82
46534;BME280;32260;52.008;4.752;2023-04-26T08:50:05;102081.78;;;12.08;46.67
46534;BME280;32260;52.008;4.752;2023-04-26T08:52:34;102083.53;;;12.09;43.92
46534;BME280;32260;52.008;4.752;2023-04-26T08:55:00;102079.06;;;12.19;46.18
46534;BME280;32260;52.008;4.752;2023-04-26T08:57:27;102079.91;;;12.24;46.07
46534;BME280;32260;52.008;4.752;2023-04-26T08:59:56;102083.41;;;12.29;46.58
46534;BME280;32260;52.008;4.752;2023-04-26T09:02:23;102084.31;;;12.22;44.88
46534;BME280;32260;52.008;4.752;2023-04-26T09:04:50;102089.66;;;12.22;45.86
46534;BME280;32260;52.008;4.752;2023-04-26T09:07:39;102091.41;;;12.23;46.22
46534;BME280;32260;52.008;4.752;2023-04-26T09:10:06;102080.88;;;12.14;45.38
46534;BME280;32260;52.008;4.752;2023-04-26T09:12:33;102093.25;;;12.12;46.12
46534;BME280;32260;52.008;4.752;2023-04-26T09:14:59;102086.13;;;12.17;45.58
46534;BME280;32260;52.008;4.752;2023-04-26T09:17:41;102093.13;;;12.30;45.89
46534;BME280;32260;52.008;4.752;2023-04-26T09:20:27;102094.81;;;12.44;45.90
46534;BME280;32260;52.008;4.752;2023-04-26T09:23:09;102097.41;;;12.52;45.60
46534;BME280;32260;52.008;4.752;2023-04-26T09:25:35;102094.75;;;12.52;44.17
46534;BME280;32260;52.008;4.752;2023-04-26T09:28:03;102094.69;;;12.59;44.45
46534;BME280;32260;52.008;4.752;2023-04-26T09:30:30;102092.81;;;12.71;44.54
46534;BME280;32260;52.008;4.752;2023-04-26T09:33:03;102089.13;;;12.87;44.20
46534;BME280;32260;52.008;4.752;2023-04-26T09:35:40;102085.34;;;13.10;43.11
46534;BME280;32260;52.008;4.752;2023-04-26T09:43:21;102082.31;;;13.46;42.29
46534;BME280;32260;52.008;4.752;2023-04-26T09:48:33;102078.56;;;13.61;41.65
46534;BME280;32260;52.008;4.752;2023-04-26T09:51:09;102083.84;;;13.65;41.46
46534;BME280;32260;52.008;4.752;2023-04-26T09:53:40;102076.72;;;13.67;41.90
46534;BME280;32260;52.008;4.752;2023-04-26T09:56:15;102081.97;;;13.72;41.88
46534;BME280;32260;52.008;4.752;2023-04-26T10:01:20;102071.25;;;13.77;42.43
46534;BME280;32260;52.008;4.752;2023-04-26T10:03:46;102075.75;;;13.73;41.17
46534;BME280;32260;52.008;4.752;2023-04-26T10:06:12;102073.16;;;13.67;40.73
46534;BME280;32260;52.008;4.752;2023-04-26T10:08:40;102067.03;;;13.62;41.89
46534;BME280;32260;52.008;4.752;2023-04-26T10:11:06;102074.19;;;13.56;41.26
46534;BME280;32260;52.008;4.752;2023-04-26T10:13:34;102070.72;;;13.51;40.54
46534;BME280;32260;52.008;4.752;2023-04-26T10:16:01;102072.56;;;13.43;41.29
46534;BME280;32260;52.008;4.752;2023-04-26T10:18:28;102082.44;;;13.35;41.47
46534;BME280;32260;52.008;4.752;2023-04-26T10:20:59;102078.97;;;13.26;42.02
46534;BME280;32260;52.008;4.752;2023-04-26T10:23:26;102080.78;;;13.21;42.57
46534;BME280;32260;52.008;4.752;2023-04-26T10:25:53;102081.72;;;13.19;42.74
46534;BME280;32260;52.008;4.752;2023-04-26T10:31:16;102083.59;;;13.09;42.18
46534;BME280;32260;52.008;4.752;2023-04-26T10:33:42;102081.88;;;13.02;42.74
46534;BME280;32260;52.008;4.752;2023-04-26T10:36:12;102092.50;;;13.05;42.43
46534;BME280;32260;52.008;4.752;2023-04-26T10:38:41;102088.09;;;13.02;42.19
46534;BME280;32260;52.008;4.752;2023-04-26T10:41:34;102088.84;;;13.15;42.21
46534;BME280;32260;52.008;4.752;2023-04-26T10:44:36;102087.00;;;13.23;42.18
46534;BME280;32260;52.008;4.752;2023-04-26T10:47:05;102074.47;;;13.32;42.84
46534;BME280;32260;52.008;4.752;2023-04-26T10:49:43;102071.63;;;13.49;41.29
46534;BME280;32260;52.008;4.752;2023-04-26T10:52:12;102069.75;;;13.55;42.12
46534;BME280;32260;52.008;4.752;2023-04-26T10:54:56;102067.78;;;13.71;41.66
46534;BME280;32260;52.008;4.752;2023-04-26T10:57:45;102061.53;;;13.74;41.44
46534;BME280;32260;52.008;4.752;2023-04-26T11:05:35;102057.09;;;13.73;41.41
46534;BME280;32260;52.008;4.752;2023-04-26T11:10:41;102050.44;;;14.05;40.32
46534;BME280;32260;52.008;4.752;2023-04-26T11:13:07;102047.53;;;14.20;39.51
46534;BME280;32260;52.008;4.752;2023-04-26T11:15:34;102056.34;;;14.24;38.53
46534;BME280;32260;52.008;4.752;2023-04-26T11:18:02;102046.34;;;14.38;38.30
46534;BME280;32260;52.008;4.752;2023-04-26T11:20:30;102044.25;;;14.57;38.99
46534;BME280;32260;52.008;4.752;2023-04-26T11:22:57;102037.56;;;14.85;37.84
46534;BME280;32260;52.008;4.752;2023-04-26T11:25:25;102032.63;;;15.10;38.11
46534;BME280;32260;52.008;4.752;2023-04-26T11:27:57;102037.53;;;15.32;38.42
46534;BME280;32260;52.008;4.752;2023-04-26T11:30:24;102024.75;;;15.46;37.56
46534;BME280;32260;52.008;4.752;2023-04-26T11:32:50;102027.22;;;15.57;35.21
46534;BME280;32260;52.008;4.752;2023-04-26T11:35:16;102036.69;;;15.72;35.34
46534;BME280;32260;52.008;4.752;2023-04-26T11:37:44;102027.66;;;15.78;36.30
46534;BME280;32260;52.008;4.752;2023-04-26T11:40:11;102018.00;;;15.71;35.51
46534;BME280;32260;52.008;4.752;2023-04-26T11:42:37;102022.69;;;15.61;35.27
46534;BME280;32260;52.008;4.752;2023-04-26T11:45:03;102025.34;;;15.61;35.29
46534;BME280;32260;52.008;4.752;2023-04-26T11:47:33;102023.69;;;15.55;36.77
46534;BME280;32260;52.008;4.752;2023-04-26T11:50:00;102026.53;;;15.49;36.46
46534;BME280;32260;52.008;4.752;2023-04-26T11:52:28;102023.03;;;15.44;36.32
46534;BME280;32260;52.008;4.752;2023-04-26T11:55:04;102017.59;;;15.48;37.53
46534;BME280;32260;52.008;4.752;2023-04-26T11:57:31;102017.94;;;15.33;37.82
46534;BME280;32260;52.008;4.752;2023-04-26T12:00:14;102020.53;;;15.36;37.93
46534;BME280;32260;52.008;4.752;2023-04-26T12:02:44;102025.31;;;15.20;38.21
46534;BME280;32260;52.008;4.752;2023-04-26T12:05:23;102019.31;;;15.09;38.61
46534;BME280;32260;52.008;4.752;2023-04-26T12:07:51;102029.41;;;14.93;38.63
46534;BME280;32260;52.008;4.752;2023-04-26T12:10:22;102032.34;;;14.79;38.50
46534;BME280;32260;52.008;4.752;2023-04-26T12:12:49;102034.34;;;14.67;39.37
46534;BME280;32260;52.008;4.752;2023-04-26T12:15:17;102039.81;;;14.56;39.17
46534;BME280;32260;52.008;4.752;2023-04-26T12:18:07;102039.91;;;14.52;39.42
46534;BME280;32260;52.008;4.752;2023-04-26T12:20:36;102042.81;;;14.36;39.76
46534;BME280;32260;52.008;4.752;2023-04-26T12:23:08;102045.53;;;14.35;40.07
46534;BME280;32260;52.008;4.752;2023-04-26T12:25:37;102042.00;;;14.34;40.09
46534;BME280;32260;52.008;4.752;2023-04-26T12:28:05;102048.13;;;14.38;39.96
46534;BME280;32260;52.008;4.752;2023-04-26T12:30:37;102044.56;;;14.39;38.98
46534;BME280;32260;52.008;4.752;2023-04-26T12:33:05;102040.97;;;14.42;39.66
46534;BME280;32260;52.008;4.752;2023-04-26T12:35:32;102042.72;;;14.43;39.61
46534;BME280;32260;52.008;4.752;2023-04-26T12:38:01;102048.00;;;14.47;39.78
46534;BME280;32260;52.008;4.752;2023-04-26T12:40:28;102042.59;;;14.52;38.99
46534;BME280;32260;52.008;4.752;2023-04-26T12:42:54;102043.38;;;14.57;39.38
46534;BME280;32260;52.008;4.752;2023-04-26T12:45:22;102049.53;;;14.61;38.80
46534;BME280;32260;52.008;4.752;2023-04-26T12:47:49;102045.88;;;14.69;39.56
46534;BME280;32260;52.008;4.752;2023-04-26T12:50:15;102047.50;;;14.78;39.44
46534;BME280;32260;52.008;4.752;2023-04-26T12:52:43;102045.59;;;14.83;39.26
46534;BME280;32260;52.008;4.752;2023-04-26T12:55:11;102037.59;;;14.83;38.55
46534;BME280;32260;52.008;4.752;2023-04-26T12:57:40;102034.94;;;14.83;38.97
46534;BME280;32260;52.008;4.752;2023-04-26T13:00:10;102041.94;;;14.91;39.59
46534;BME280;32260;52.008;4.752;2023-04-26T13:02:36;102028.31;;;15.04;39.44
46534;BME280;32260;52.008;4.752;2023-04-26T13:05:03;102032.25;;;15.30;38.81
46534;BME280;32260;52.008;4.752;2023-04-26T13:07:32;102025.41;;;15.59;37.20
46534;BME280;32260;52.008;4.752;2023-04-26T13:09:59;102037.38;;;15.82;37.64
46534;BME280;32260;52.008;4.752;2023-04-26T13:12:26;102032.84;;;15.85;36.44
46534;BME280;32260;52.008;4.752;2023-04-26T13:14:52;102023.63;;;15.99;38.18
46534;BME280;32260;52.008;4.752;2023-04-26T13:17:18;102025.06;;;16.12;37.02
46534;BME280;32260;52.008;4.752;2023-04-26T13:19:44;102032.03;;;16.20;37.42
46534;BME280;32260;52.008;4.752;2023-04-26T13:22:11;102039.09;;;16.24;37.49